Date,TemperatureHighF,TemperatureAvgF,TemperatureLowF,DewpointHighF,DewpointAvgF,DewpointLowF,HumidityHigh,HumidityAvg,HumidityLow,PressureMaxIn,PressureMinIn,WindSpeedMaxMPH,WindSpeedAvgMPH,GustSpeedMaxMPH,PrecipitationSumIn
2013-1-1,35,32,22,24,19,7,67,59,48,0.00,40.00,8,5,19,0.00
2013-1-2,29,23,17,10,8,6,61,52,42,0.00,40.00,10,4,22,0.00
2013-1-3,29,24,18,15,10,9,70,56,44,0.00,40.00,8,3,15,0.00
2013-1-4,34,30,26,19,16,13,67,56,48,0.00,40.00,13,6,26,0.00
2013-1-5,39,31,27,18,15,12,63,51,38,0.00,40.00,11,4,23,0.00
2013-1-6,42,34,29,27,21,18,83,60,43,0.00,40.00,7,3,16,0.00
2013-1-7,40,35,29,25,21,15,73,57,39,0.00,40.00,8,3,17,0.00
2013-1-8,44,34,27,25,23,20,76,63,44,0.00,40.00,7,3,18,0.00
2013-1-9,42,37,30,33,28,22,84,70,61,0.00,40.00,8,3,20,0.00
2013-1-10,45,39,35,28,21,18,61,48,36,0.00,40.00,10,5,22,0.00
2013-1-11,42,37,31,39,28,20,88,71,56,0.00,40.00,10,4,18,0.00
2013-1-12,45,41,37,42,38,34,88,88,88,0.00,40.00,7,2,11,0.00
2013-1-13,46,43,41,43,40,37,88,88,88,0.00,40.00,6,2,12,0.00
2013-1-14,52,47,35,47,40,25,88,78,45,0.00,40.00,12,4,19,0.00
2013-1-15,35,33,31,27,24,20,82,69,58,0.00,40.00,7,2,12,0.00
2013-1-16,32,30,29,29,27,24,88,87,73,0.00,40.00,9,4,15,0.00
2013-1-17,39,34,31,30,22,17,88,63,44,0.00,40.00,9,3,17,0.00
2013-1-18,31,25,21,18,6,-2,67,45,29,0.00,40.00,11,4,24,0.00
2013-1-19,45,34,23,20,15,3,63,45,33,0.00,40.00,10,6,22,0.00
2013-1-20,47,38,25,24,16,5,57,42,22,0.00,40.00,14,6,32,0.00
2013-1-21,26,23,20,15,7,3,75,50,42,0.00,40.00,10,3,24,0.00
2013-1-22,22,14,8,6,-3,-10,60,47,36,0.00,40.00,10,7,32,0.00
2013-1-23,16,9,5,-2,-6,-10,67,50,38,0.00,40.00,9,4,20,0.00
2013-1-24,18,12,5,1,-3,-6,70,53,35,0.00,40.00,10,4,30,0.00
2013-1-25,20,13,8,10,1,-7,85,59,41,0.00,40.00,7,3,15,0.00
2013-1-26,23,16,10,9,4,0,85,62,38,0.00,40.00,11,4,24,0.00
2013-1-27,16,13,11,7,4,2,73,67,56,0.00,40.00,5,2,11,0.00
2013-1-28,32,30,26,29,26,15,89,85,63,0.00,40.00,9,4,18,0.00
2013-1-29,50,40,32,41,35,29,89,82,59,0.00,40.00,9,3,19,0.00
2013-1-30,62,50,41,56,47,37,88,87,76,0.00,40.00,12,5,25,0.00
2013-1-31,53,34,25,49,12,3,87,42,29,0.00,40.00,16,10,41,0.00
2013-2-1,27,23,18,12,6,-3,75,50,28,0.00,40.00,12,6,31,0.00
2013-2-2,23,18,12,15,6,1,83,60,39,0.00,40.00,10,4,18,0.00
2013-2-3,27,20,16,16,14,11,85,75,54,0.00,40.00,5,2,11,0.00
2013-2-4,26,21,17,17,5,1,83,49,34,0.00,40.00,10,6,23,0.00
2013-2-5,28,25,22,22,18,10,85,76,59,0.00,40.00,6,2,9,0.00
2013-2-6,35,29,24,24,15,2,88,60,33,0.00,40.00,10,3,22,0.00
2013-2-7,30,24,17,11,4,1,52,43,34,0.00,40.00,13,3,18,0.00
2013-2-8,31,29,26,28,24,12,88,81,54,0.00,40.00,22,12,31,0.00
2013-2-9,30,24,15,25,10,-1,89,59,30,0.00,40.00,13,6,32,0.00
2013-2-10,42,25,12,9,5,-1,76,46,23,0.00,40.00,7,3,22,0.00
2013-2-11,40,35,28,37,30,9,88,80,44,0.00,40.00,7,3,16,0.00
2013-2-12,38,36,30,34,19,16,88,51,42,0.00,40.00,13,6,31,0.00
2013-2-13,42,32,24,28,19,16,85,62,38,0.00,40.00,6,2,8,0.00
2013-2-14,42,34,29,30,23,17,88,67,40,0.00,40.00,7,2,14,0.00
2013-2-15,50,40,31,29,23,19,84,52,30,0.00,40.00,14,4,28,0.00
2013-2-16,33,30,25,29,19,4,88,65,42,0.00,40.00,8,2,18,0.00
2013-2-17,27,21,13,5,-1,-5,48,37,27,0.00,40.00,14,8,32,0.00
2013-2-18,32,20,11,5,-1,-5,49,39,28,0.00,40.00,12,6,28,0.00
2013-2-19,39,33,27,35,20,4,88,63,33,0.00,40.00,11,4,25,0.00
2013-2-20,33,25,20,21,7,2,60,46,37,0.00,40.00,13,8,32,0.00
2013-2-21,30,23,18,8,6,2,61,47,39,0.00,40.00,13,7,31,0.00
2013-2-22,34,26,17,25,15,8,79,63,47,0.00,40.00,10,4,17,0.00
2013-2-23,39,35,31,36,32,26,89,88,81,0.00,40.00,14,7,23,0.00
2013-2-24,40,34,29,36,25,15,88,72,50,0.00,40.00,9,4,25,0.00
2013-2-25,39,33,28,23,20,15,71,60,47,0.00,40.00,6,3,14,0.00
2013-2-26,40,33,28,29,24,21,87,70,52,0.00,40.00,23,8,36,0.00
2013-2-27,44,39,32,40,34,29,88,82,68,0.00,40.00,28,13,43,0.00
2013-2-28,44,38,32,33,27,19,84,65,43,0.00,40.00,6,3,14,0.00
2013-3-1,40,34,29,27,23,19,87,64,44,0.00,40.00,8,4,19,0.00
2013-3-2,35,30,26,20,17,15,73,60,50,0.00,40.00,7,4,19,0.00
2013-3-3,32,27,24,16,13,9,66,55,45,0.00,40.00,9,5,24,0.00
2013-3-4,37,29,23,15,13,9,62,50,37,0.00,40.00,12,7,26,0.00
2013-3-5,45,34,27,20,18,15,64,50,36,0.00,40.00,9,5,23,0.00
2013-3-6,38,35,33,32,25,-100,84,67,54,0.00,40.00,23,13,40,0.00
2013-3-7,40,34,29,30,23,19,88,66,48,0.00,40.00,12,6,26,0.00
2013-3-8,41,31,26,28,25,18,89,78,53,0.00,40.00,11,6,22,0.00
2013-3-9,55,40,28,18,15,12,60,39,18,0.00,40.00,7,3,15,0.00
2013-3-10,53,40,29,30,22,12,86,52,30,0.00,40.00,12,5,17,0.00
2013-3-11,53,41,33,43,35,30,88,80,43,0.00,40.00,11,4,18,0.00
2013-3-12,55,49,40,51,44,32,87,83,70,0.00,40.00,10,5,24,0.00
2013-3-13,45,38,33,33,23,14,84,57,28,0.00,40.00,9,4,25,0.00
2013-3-14,37,30,25,18,7,0,55,38,23,0.00,40.00,13,8,33,0.00
2013-3-15,42,33,24,24,14,2,52,44,31,0.00,40.00,11,5,28,0.00
2013-3-16,38,31,29,26,21,15,85,67,50,0.00,40.00,7,3,17,0.00
2013-3-17,33,29,23,25,14,6,88,57,36,0.00,40.00,7,3,15,0.00
2013-3-18,31,26,22,26,12,2,89,56,38,0.00,40.00,17,9,26,0.00
2013-3-19,44,35,29,33,27,9,88,76,42,0.00,40.00,15,3,24,0.00
2013-3-20,42,33,27,15,12,9,56,42,28,0.00,40.00,11,6,33,0.00
2013-3-21,35,29,26,23,11,4,80,48,28,0.00,40.00,7,4,16,0.00
2013-3-22,36,29,24,17,12,5,65,49,36,0.00,40.00,10,5,22,0.00
2013-3-23,41,34,28,18,14,11,57,45,32,0.00,40.00,12,6,27,0.00
2013-3-24,43,36,27,18,15,12,57,44,34,0.00,40.00,8,4,19,0.00
2013-3-25,37,36,35,25,20,17,65,52,44,0.00,40.00,7,4,11,0.00
2013-3-26,47,38,32,29,23,16,88,58,29,0.00,40.00,8,3,19,0.00
2013-3-27,49,38,29,27,22,15,75,54,27,0.00,40.00,9,4,23,0.00
2013-3-28,46,39,31,27,25,22,79,58,41,0.00,40.00,8,4,17,0.00
2013-3-29,50,42,33,26,23,20,68,49,32,0.00,40.00,7,4,21,0.00
2013-3-30,56,43,32,29,21,12,79,46,18,0.00,40.00,10,3,19,0.00
2013-3-31,55,45,40,39,27,15,88,52,35,0.00,40.00,14,5,29,0.00
2013-4-1,56,44,33,43,29,5,88,62,25,0.00,40.00,13,6,31,0.00
2013-4-2,39,33,27,13,6,4,53,33,24,0.00,40.00,12,6,26,0.00
2013-4-3,42,34,27,9,6,3,41,31,23,0.00,40.00,12,6,24,0.00
2013-4-4,52,38,26,18,12,5,51,36,24,0.00,40.00,9,4,19,0.00
2013-4-5,59,45,34,23,17,13,59,34,17,0.00,40.00,12,5,26,0.00
2013-4-6,50,39,29,15,11,7,51,33,18,0.00,40.00,9,4,24,0.00
2013-4-7,61,47,35,36,27,12,65,47,31,0.00,40.00,13,6,23,0.00
2013-4-8,73,60,46,43,37,32,76,47,22,0.00,40.00,8,4,20,0.00
2013-4-9,79,67,57,48,42,32,69,43,20,0.00,40.00,14,4,29,0.00
2013-4-10,81,66,54,55,49,42,86,56,36,0.00,40.00,10,4,20,0.00
2013-4-11,59,54,44,55,47,39,87,78,53,0.00,40.00,17,5,24,0.00
2013-4-12,44,40,38,39,36,31,88,84,63,0.00,40.00,24,14,39,0.00
2013-4-13,54,46,37,39,29,24,88,59,33,0.00,40.00,10,3,19,0.00
2013-4-14,55,48,42,28,24,19,56,39,27,0.00,40.00,11,4,24,0.00
2013-4-15,59,48,40,30,24,19,53,40,34,0.00,40.00,11,6,18,0.00
2013-4-16,68,56,44,50,43,30,84,63,47,0.00,40.00,15,6,26,0.00
2013-4-17,67,59,49,53,34,23,85,46,20,0.00,40.00,8,4,18,0.00
2013-4-18,55,50,45,48,39,30,88,68,42,0.00,40.00,12,7,27,0.00
2013-4-19,74,62,52,60,55,48,88,78,53,0.00,40.00,12,7,29,0.00
2013-4-20,54,48,42,51,26,13,87,48,25,0.00,40.00,12,7,27,0.00
2013-4-21,51,41,31,19,14,10,50,34,24,0.00,40.00,9,5,18,0.00
2013-4-22,51,42,33,29,24,15,68,48,35,0.00,40.00,18,6,25,0.00
2013-4-23,47,42,36,37,32,28,81,70,63,0.00,40.00,12,6,20,0.00
2013-4-24,70,54,36,49,39,32,87,62,37,0.00,40.00,11,4,20,0.00
2013-4-25,61,52,40,50,26,16,76,40,18,0.00,40.00,10,5,23,0.00
2013-4-26,62,52,42,32,25,19,54,37,20,0.00,40.00,7,3,15,0.00
2013-4-27,67,54,39,31,28,25,63,38,24,0.00,40.00,7,3,13,0.00
2013-4-28,69,58,45,38,32,-100,61,40,29,0.00,40.00,10,4,19,0.00
2013-4-29,54,50,49,47,44,30,88,79,39,0.00,40.00,12,6,21,0.00
2013-4-30,65,55,47,45,31,15,88,46,20,0.00,40.00,13,6,20,0.00
2013-5-1,67,53,39,36,25,16,64,35,18,0.00,40.00,14,5,20,0.00
2013-5-2,73,58,41,43,34,29,86,47,23,0.00,40.00,8,3,17,0.00
2013-5-3,63,55,46,38,31,26,75,42,25,0.00,40.00,15,8,23,0.00
2013-5-4,69,54,41,39,35,29,86,54,24,0.00,40.00,12,5,18,0.00
2013-5-5,64,50,38,38,34,27,87,59,26,0.00,40.00,11,4,18,0.00
2013-5-6,68,54,39,47,42,35,87,65,41,0.00,40.00,8,4,16,0.00
2013-5-7,71,59,47,55,46,36,87,66,37,0.00,40.00,13,6,19,0.00
2013-5-8,66,60,55,57,54,49,88,82,65,0.00,40.00,14,7,25,0.00
2013-5-9,67,57,52,53,50,45,87,77,49,0.00,40.00,6,3,12,0.00
2013-5-10,77,63,52,56,46,-100,87,62,30,0.00,40.00,7,2,15,0.00
2013-5-11,69,63,59,60,57,54,86,81,62,0.00,40.00,9,4,17,0.00
2013-5-12,63,55,46,55,32,-100,87,47,21,0.00,40.00,12,5,30,0.00
2013-5-13,53,45,38,28,23,19,64,42,28,0.00,40.00,10,4,23,0.00
2013-5-14,59,47,34,29,22,13,76,43,18,0.00,40.00,8,3,19,0.00
2013-5-15,71,56,43,53,38,22,70,50,39,0.00,40.00,10,3,20,0.00
2013-5-16,80,63,56,54,26,-100,84,47,23,0.00,40.00,8,2,18,0.00
2013-5-17,71,59,51,38,29,-100,59,39,27,0.00,40.00,6,3,15,0.00
2013-5-18,62,56,51,52,45,38,86,68,49,0.00,40.00,6,3,12,0.00
2013-5-19,59,55,53,55,51,50,88,87,85,0.00,40.00,11,6,19,0.00
2013-5-20,77,66,55,63,57,52,87,74,50,0.00,40.00,7,3,14,0.00
2013-5-21,86,73,63,67,62,59,86,70,44,0.00,40.00,8,4,19,0.00
2013-5-22,83,73,65,67,64,61,87,75,51,0.00,40.00,9,4,17,0.00
2013-5-23,75,68,62,66,63,58,86,82,64,0.00,40.00,10,4,23,0.00
2013-5-24,66,51,41,62,46,35,87,84,71,0.00,40.00,7,4,22,0.00
2013-5-25,54,46,40,40,33,26,87,64,38,0.00,40.00,10,6,28,0.00
2013-5-26,64,53,42,34,29,22,70,42,23,0.00,40.00,10,4,28,0.00
2013-5-27,72,58,42,38,32,25,64,40,23,0.00,40.00,8,2,16,0.00
2013-5-28,62,55,50,52,46,36,87,71,47,0.00,40.00,7,2,13,0.00
2013-5-29,83,68,55,65,57,51,87,71,44,0.00,40.00,9,3,17,0.00
2013-5-30,89,77,66,63,58,51,85,56,29,0.00,40.00,9,2,17,0.00
2013-5-31,90,79,68,65,59,51,83,53,32,0.00,40.00,9,3,15,0.00
2013-6-1,88,78,67,64,62,56,85,59,41,0.00,40.00,8,4,18,0.00
2013-6-2,85,76,68,67,62,-100,86,65,48,0.00,40.00,10,5,23,0.00
2013-6-3,78,70,64,65,60,54,87,73,45,0.00,40.00,7,3,17,0.00
2013-6-4,73,68,59,40,37,32,38,33,28,0.00,40.00,6,3,14,0.00
2013-6-5,74,62,49,45,39,31,59,43,34,0.00,40.00,8,3,12,0.00
2013-6-6,66,59,51,56,50,44,87,74,47,0.00,40.00,10,6,20,0.00
2013-6-7,61,59,57,57,55,53,87,87,87,0.00,40.00,15,10,24,0.00
2013-6-8,75,64,55,59,56,51,87,74,53,0.00,40.00,7,3,18,0.00
2013-6-9,79,67,55,58,53,49,87,63,37,0.00,40.00,8,2,15,0.00
2013-6-10,66,64,62,62,59,55,87,83,74,0.00,40.00,15,6,28,0.00
2013-6-11,75,69,65,65,61,55,87,76,54,0.00,40.00,10,4,25,0.00
2013-6-12,77,67,60,57,51,47,78,57,36,0.00,40.00,7,4,19,0.00
2013-6-13,63,59,55,56,54,50,88,81,62,0.00,40.00,15,6,27,0.00
2013-6-14,74,58,51,56,50,44,87,74,41,0.00,40.00,9,3,20,0.00
2013-6-15,78,65,54,55,50,44,87,63,32,0.00,40.00,6,2,18,0.00
2013-6-16,77,68,57,62,52,46,81,59,39,0.00,40.00,10,3,24,0.00
2013-6-17,83,71,62,66,59,50,86,68,32,0.00,40.00,7,3,15,0.00
2013-6-18,83,68,59,67,58,53,87,73,40,0.00,40.00,10,2,17,0.00
2013-6-19,74,63,55,55,46,40,87,58,30,0.00,40.00,6,3,14,0.00
2013-6-20,78,61,52,53,47,43,81,62,32,0.00,40.00,6,1,13,0.00
2013-6-22,82,78,72,61,60,58,68,53,45,0.00,40.00,8,4,15,0.00
2013-6-23,86,76,64,68,62,60,86,65,45,0.00,40.00,9,4,16,0.00
2013-6-25,88,76,66,68,63,61,86,67,43,0.00,40.00,11,3,24,0.00
2013-6-26,83,74,65,66,62,60,87,70,47,0.00,40.00,8,3,13,0.00
2013-6-27,87,76,67,70,64,60,87,69,42,0.00,40.00,11,3,19,0.00
2013-6-28,84,74,68,68,63,59,87,70,45,0.00,40.00,9,4,27,0.00
2013-6-29,83,74,65,64,59,55,86,64,39,0.00,40.00,7,3,18,0.00
2013-6-30,84,75,67,70,65,58,84,72,57,0.00,40.00,7,2,15,0.00
2013-7-1,75,72,68,69,67,64,87,85,80,0.00,40.00,9,3,20,0.00
2013-7-2,84,75,71,71,68,65,87,77,58,0.00,40.00,8,4,18,0.00
2013-7-3,83,76,70,69,67,65,86,75,56,0.00,40.00,7,4,16,0.00
2013-7-4,88,79,72,70,67,65,87,69,48,0.00,40.00,9,4,17,0.00
2013-7-5,90,81,72,69,66,63,86,64,43,0.00,40.00,10,4,16,0.00
2013-7-6,90,80,72,70,67,64,86,65,43,0.00,40.00,8,3,17,0.00
2013-7-7,91,80,69,70,67,64,86,67,43,0.00,40.00,8,3,17,0.00
2013-7-8,85,75,66,67,63,60,87,70,42,0.00,40.00,6,3,15,0.00
2013-7-9,83,71,67,64,62,61,84,75,50,0.00,40.00,5,1,8,0.00
2013-7-12,76,72,67,66,64,60,87,76,63,0.00,40.00,12,8,22,0.00
2013-7-13,79,71,65,70,65,61,87,84,71,0.00,40.00,12,7,21,0.00
2013-7-14,88,79,72,73,67,62,87,69,43,0.00,40.00,7,3,16,0.00
2013-7-15,90,80,72,70,67,66,86,66,45,0.00,40.00,4,2,11,0.00
2013-7-16,90,83,71,67,63,61,80,52,39,0.00,40.00,4,1,14,0.00
2013-7-17,92,81,71,68,64,60,83,59,37,0.00,40.00,4,1,8,0.00
2013-7-18,94,86,73,71,67,63,84,56,37,0.00,40.00,5,2,12,0.00
2013-7-19,93,83,74,74,70,67,83,65,46,0.00,40.00,7,3,18,0.00
2013-7-20,90,79,72,71,65,-100,85,65,45,0.00,40.00,9,4,21,0.00
2013-7-21,87,77,71,68,62,58,85,62,40,0.00,40.00,5,2,10,0.00
2013-7-22,83,74,67,71,66,63,88,78,59,0.00,40.00,9,4,13,0.00
2013-7-23,85,74,70,70,67,63,87,78,50,0.00,40.00,9,3,14,0.00
2013-7-24,77,70,61,65,58,48,86,66,43,0.00,40.00,6,2,14,0.00
2013-7-25,68,62,56,57,50,46,79,66,57,0.00,40.00,7,3,13,0.00
2013-7-26,81,69,61,56,54,50,84,60,36,0.00,40.00,7,2,12,0.00
2013-7-27,82,71,59,60,56,54,84,61,44,0.00,40.00,7,2,14,0.00
2013-7-28,76,68,65,66,62,56,87,82,67,0.00,40.00,6,3,13,0.00
2013-7-29,79,69,62,63,59,52,87,74,39,0.00,40.00,5,2,12,0.00